sensor_id;sensor_type;location;lat;lon;timestamp;temperature;humidity
45383;DHT22;42455;51.660;5.824;2023-07-24T00:00:26;20.3;98.5
45383;DHT22;42455;51.660;5.824;2023-07-24T00:05:32;20.4;98.5
45383;DHT22;42455;51.660;5.824;2023-07-24T00:10:38;20.4;98.5
45383;DHT22;42455;51.660;5.824;2023-07-24T00:15:44;20.4;98.5
45383;DHT22;42455;51.660;5.824;2023-07-24T00:20:51;20.4;98.5
45383;DHT22;42455;51.660;5.824;2023-07-24T00:25:57;20.4;98.5
45383;DHT22;42455;51.660;5.824;2023-07-24T00:31:03;20.4;98.5
45383;DHT22;42455;51.660;5.824;2023-07-24T00:36:09;20.4;98.5
45383;DHT22;42455;51.660;5.824;2023-07-24T00:41:16;20.4;98.5
45383;DHT22;42455;51.660;5.824;2023-07-24T00:46:22;20.4;98.5
45383;DHT22;42455;51.660;5.824;2023-07-24T00:51:28;20.4;98.5
45383;DHT22;42455;51.660;5.824;2023-07-24T00:56:34;20.4;98.5
45383;DHT22;42455;51.660;5.824;2023-07-24T01:01:41;20.4;98.5
45383;DHT22;42455;51.660;5.824;2023-07-24T01:06:47;20.4;98.5
45383;DHT22;42455;51.660;5.824;2023-07-24T01:12:00;20.3;98.5
45383;DHT22;42455;51.660;5.824;2023-07-24T01:17:00;20.3;98.5
45383;DHT22;42455;51.660;5.824;2023-07-24T01:22:10;20.3;98.5
45383;DHT22;42455;51.660;5.824;2023-07-24T01:27:18;20.3;98.5
45383;DHT22;42455;51.660;5.824;2023-07-24T01:32:18;20.3;98.5
45383;DHT22;42455;51.660;5.824;2023-07-24T01:37:25;20.3;98.5
45383;DHT22;42455;51.660;5.824;2023-07-24T01:42:30;20.3;98.5
45383;DHT22;42455;51.660;5.824;2023-07-24T01:47:36;20.3;98.5
45383;DHT22;42455;51.660;5.824;2023-07-24T01:52:42;20.3;98.5
45383;DHT22;42455;51.660;5.824;2023-07-24T01:57:49;20.3;98.5
45383;DHT22;42455;51.660;5.824;2023-07-24T02:02:55;20.3;98.5
45383;DHT22;42455;51.660;5.824;2023-07-24T02:08:01;20.3;98.5
45383;DHT22;42455;51.660;5.824;2023-07-24T02:13:07;20.3;98.5
45383;DHT22;42455;51.660;5.824;2023-07-24T02:18:13;20.3;98.5
45383;DHT22;42455;51.660;5.824;2023-07-24T02:23:20;20.3;98.5
45383;DHT22;42455;51.660;5.824;2023-07-24T02:28:26;20.3;98.5
45383;DHT22;42455;51.660;5.824;2023-07-24T02:33:32;20.3;98.5
45383;DHT22;42455;51.660;5.824;2023-07-24T02:38:38;20.3;98.5
45383;DHT22;42455;51.660;5.824;2023-07-24T02:43:45;20.3;98.5
45383;DHT22;42455;51.660;5.824;2023-07-24T02:48:51;20.3;98.5
45383;DHT22;42455;51.660;5.824;2023-07-24T02:53:57;20.3;98.5
45383;DHT22;42455;51.660;5.824;2023-07-24T02:59:03;20.3;98.5
45383;DHT22;42455;51.660;5.824;2023-07-24T03:04:09;20.3;98.5
45383;DHT22;42455;51.660;5.824;2023-07-24T03:09:16;20.3;98.5
45383;DHT22;42455;51.660;5.824;2023-07-24T03:14:22;20.3;98.5
45383;DHT22;42455;51.660;5.824;2023-07-24T03:19:28;20.3;98.5
45383;DHT22;42455;51.660;5.824;2023-07-24T03:24:35;20.3;98.5
45383;DHT22;42455;51.660;5.824;2023-07-24T03:29:40;20.3;98.5
45383;DHT22;42455;51.660;5.824;2023-07-24T03:34:47;20.3;98.5
45383;DHT22;42455;51.660;5.824;2023-07-24T03:39:52;20.2;98.5
45383;DHT22;42455;51.660;5.824;2023-07-24T03:44:58;20.2;98.5
45383;DHT22;42455;51.660;5.824;2023-07-24T03:50:04;20.2;98.5
45383;DHT22;42455;51.660;5.824;2023-07-24T03:55:11;20.2;98.5
45383;DHT22;42455;51.660;5.824;2023-07-24T04:00:17;20.1;98.5
45383;DHT22;42455;51.660;5.824;2023-07-24T04:05:23;20.1;98.5
45383;DHT22;42455;51.660;5.824;2023-07-24T04:10:29;20.1;98.5
45383;DHT22;42455;51.660;5.824;2023-07-24T04:15:35;20.0;98.5
45383;DHT22;42455;51.660;5.824;2023-07-24T04:20:41;20.0;98.5
45383;DHT22;42455;51.660;5.824;2023-07-24T04:25:48;19.9;98.5
45383;DHT22;42455;51.660;5.824;2023-07-24T04:30:54;19.8;98.5
45383;DHT22;42455;51.660;5.824;2023-07-24T04:36:00;19.8;98.5
45383;DHT22;42455;51.660;5.824;2023-07-24T04:41:06;19.7;98.5
45383;DHT22;42455;51.660;5.824;2023-07-24T04:46:13;19.6;98.5
45383;DHT22;42455;51.660;5.824;2023-07-24T04:51:19;19.6;98.5
45383;DHT22;42455;51.660;5.824;2023-07-24T04:56:25;19.5;98.5
45383;DHT22;42455;51.660;5.824;2023-07-24T05:01:31;19.5;98.5
45383;DHT22;42455;51.660;5.824;2023-07-24T05:06:37;19.4;98.5
45383;DHT22;42455;51.660;5.824;2023-07-24T05:11:44;19.4;98.5
45383;DHT22;42455;51.660;5.824;2023-07-24T05:16:50;19.3;98.5
45383;DHT22;42455;51.660;5.824;2023-07-24T05:21:56;19.3;98.5
45383;DHT22;42455;51.660;5.824;2023-07-24T05:27:03;19.3;98.5
45383;DHT22;42455;51.660;5.824;2023-07-24T05:32:08;19.3;98.5
45383;DHT22;42455;51.660;5.824;2023-07-24T05:37:15;19.3;98.5
45383;DHT22;42455;51.660;5.824;2023-07-24T05:42:21;19.3;98.5
45383;DHT22;42455;51.660;5.824;2023-07-24T05:47:27;19.3;98.5
45383;DHT22;42455;51.660;5.824;2023-07-24T05:52:33;19.3;98.5
45383;DHT22;42455;51.660;5.824;2023-07-24T05:57:40;19.3;98.5
45383;DHT22;42455;51.660;5.824;2023-07-24T06:02:46;19.3;98.5
45383;DHT22;42455;51.660;5.824;2023-07-24T06:07:52;19.3;98.5
45383;DHT22;42455;51.660;5.824;2023-07-24T06:12:58;19.4;98.5
45383;DHT22;42455;51.660;5.824;2023-07-24T06:18:04;19.4;98.5
45383;DHT22;42455;51.660;5.824;2023-07-24T06:23:10;19.4;98.5
45383;DHT22;42455;51.660;5.824;2023-07-24T06:28:17;19.5;98.5
45383;DHT22;42455;51.660;5.824;2023-07-24T06:33:23;19.5;98.5
45383;DHT22;42455;51.660;5.824;2023-07-24T06:38:29;19.5;98.5
45383;DHT22;42455;51.660;5.824;2023-07-24T06:43:35;19.6;98.5
45383;DHT22;42455;51.660;5.824;2023-07-24T06:48:42;19.7;98.5
45383;DHT22;42455;51.660;5.824;2023-07-24T06:53:48;19.7;98.5
45383;DHT22;42455;51.660;5.824;2023-07-24T06:58:54;19.8;98.5
45383;DHT22;42455;51.660;5.824;2023-07-24T07:04:00;19.9;98.5
45383;DHT22;42455;51.660;5.824;2023-07-24T07:09:06;20.0;98.5
45383;DHT22;42455;51.660;5.824;2023-07-24T07:14:13;20.1;98.5
45383;DHT22;42455;51.660;5.824;2023-07-24T07:24:25;20.3;98.5
45383;DHT22;42455;51.660;5.824;2023-07-24T07:29:31;20.3;98.5
45383;DHT22;42455;51.660;5.824;2023-07-24T07:34:37;20.3;98.5
45383;DHT22;42455;51.660;5.824;2023-07-24T07:39:44;20.3;98.5
45383;DHT22;42455;51.660;5.824;2023-07-24T07:44:50;20.3;98.5
45383;DHT22;42455;51.660;5.824;2023-07-24T07:49:56;20.3;98.5
45383;DHT22;42455;51.660;5.824;2023-07-24T07:55:02;20.3;98.5
45383;DHT22;42455;51.660;5.824;2023-07-24T08:00:09;20.3;98.5
45383;DHT22;42455;51.660;5.824;2023-07-24T08:05:15;20.3;98.5
45383;DHT22;42455;51.660;5.824;2023-07-24T08:10:21;20.4;98.5
45383;DHT22;42455;51.660;5.824;2023-07-24T08:15:27;20.4;98.5
45383;DHT22;42455;51.660;5.824;2023-07-24T08:20:35;20.4;98.5
45383;DHT22;42455;51.660;5.824;2023-07-24T08:25:40;20.4;98.5
45383;DHT22;42455;51.660;5.824;2023-07-24T08:30:46;20.5;98.5
45383;DHT22;42455;51.660;5.824;2023-07-24T08:35:57;20.7;98.5
45383;DHT22;42455;51.660;5.824;2023-07-24T08:40:59;20.9;98.5
45383;DHT22;42455;51.660;5.824;2023-07-24T08:46:05;21.0;98.5
45383;DHT22;42455;51.660;5.824;2023-07-24T08:51:14;21.1;98.0
45383;DHT22;42455;51.660;5.824;2023-07-24T08:56:17;21.2;98.0
45383;DHT22;42455;51.660;5.824;2023-07-24T09:01:24;21.4;97.5
45383;DHT22;42455;51.660;5.824;2023-07-24T09:06:29;21.5;97.0
45383;DHT22;42455;51.660;5.824;2023-07-24T09:11:45;21.6;96.0
45383;DHT22;42455;51.660;5.824;2023-07-24T09:16:41;21.6;96.0
45383;DHT22;42455;51.660;5.824;2023-07-24T09:21:47;21.7;95.5
45383;DHT22;42455;51.660;5.824;2023-07-24T09:26:53;21.7;95.0
45383;DHT22;42455;51.660;5.824;2023-07-24T09:31:59;21.7;95.0
45383;DHT22;42455;51.660;5.824;2023-07-24T09:37:06;21.8;95.0
45383;DHT22;42455;51.660;5.824;2023-07-24T09:42:12;21.9;95.5
45383;DHT22;42455;51.660;5.824;2023-07-24T09:47:18;22.1;95.0
45383;DHT22;42455;51.660;5.824;2023-07-24T09:52:27;22.4;95.5
45383;DHT22;42455;51.660;5.824;2023-07-24T09:57:32;22.7;95.0
45383;DHT22;42455;51.660;5.824;2023-07-24T10:02:37;22.8;94.0
45383;DHT22;42455;51.660;5.824;2023-07-24T10:07:43;22.9;93.0
45383;DHT22;42455;51.660;5.824;2023-07-24T10:12:50;22.8;92.5
45383;DHT22;42455;51.660;5.824;2023-07-24T10:18:01;22.8;92.5
45383;DHT22;42455;51.660;5.824;2023-07-24T10:23:02;22.7;92.5
45383;DHT22;42455;51.660;5.824;2023-07-24T10:33:20;22.6;92.5
45383;DHT22;42455;51.660;5.824;2023-07-24T10:38:32;22.5;92.0
45383;DHT22;42455;51.660;5.824;2023-07-24T10:43:26;22.4;91.5
45383;DHT22;42455;51.660;5.824;2023-07-24T10:48:32;22.2;91.5
45383;DHT22;42455;51.660;5.824;2023-07-24T10:53:41;22.0;91.5
45383;DHT22;42455;51.660;5.824;2023-07-24T10:58:45;21.9;91.5
45383;DHT22;42455;51.660;5.824;2023-07-24T11:03:51;21.8;91.5
45383;DHT22;42455;51.660;5.824;2023-07-24T11:08:58;21.8;92.0
45383;DHT22;42455;51.660;5.824;2023-07-24T11:14:04;21.7;92.0
45383;DHT22;42455;51.660;5.824;2023-07-24T11:19:10;21.8;92.5
45383;DHT22;42455;51.660;5.824;2023-07-24T11:24:17;21.9;92.5
45383;DHT22;42455;51.660;5.824;2023-07-24T11:29:23;22.0;93.0
45383;DHT22;42455;51.660;5.824;2023-07-24T11:34:28;22.1;93.0
45383;DHT22;42455;51.660;5.824;2023-07-24T11:39:35;22.2;92.5
45383;DHT22;42455;51.660;5.824;2023-07-24T11:44:41;22.4;92.5
45383;DHT22;42455;51.660;5.824;2023-07-24T11:49:56;22.5;93.0
45383;DHT22;42455;51.660;5.824;2023-07-24T11:54:57;22.6;92.5
45383;DHT22;42455;51.660;5.824;2023-07-24T11:59:59;22.8;92.5
45383;DHT22;42455;51.660;5.824;2023-07-24T12:05:06;22.8;92.0
45383;DHT22;42455;51.660;5.824;2023-07-24T12:10:13;22.9;91.5
45383;DHT22;42455;51.660;5.824;2023-07-24T12:15:18;23.0;91.0
45383;DHT22;42455;51.660;5.824;2023-07-24T12:20:24;23.0;91.0
45383;DHT22;42455;51.660;5.824;2023-07-24T12:25:30;23.1;91.0
45383;DHT22;42455;51.660;5.824;2023-07-24T12:30:37;23.2;90.5
45383;DHT22;42455;51.660;5.824;2023-07-24T12:35:43;23.2;90.5
45383;DHT22;42455;51.660;5.824;2023-07-24T12:40:49;23.3;90.0
45383;DHT22;42455;51.660;5.824;2023-07-24T12:45:55;23.5;90.0
45383;DHT22;42455;51.660;5.824;2023-07-24T12:51:02;23.7;90.0
45383;DHT22;42455;51.660;5.824;2023-07-24T12:56:08;23.8;89.5
45383;DHT22;42455;51.660;5.824;2023-07-24T13:01:14;23.9;89.5
45383;DHT22;42455;51.660;5.824;2023-07-24T13:06:20;24.1;88.5
45383;DHT22;42455;51.660;5.824;2023-07-24T13:11:26;24.1;88.0
45383;DHT22;42455;51.660;5.824;2023-07-24T13:16:32;24.2;88.0
45383;DHT22;42455;51.660;5.824;2023-07-24T13:21:39;24.3;87.5
45383;DHT22;42455;51.660;5.824;2023-07-24T13:26:45;24.2;87.0
45383;DHT22;42455;51.660;5.824;2023-07-24T13:31:51;24.1;87.0
45383;DHT22;42455;51.660;5.824;2023-07-24T13:36:57;24.1;87.5
45383;DHT22;42455;51.660;5.824;2023-07-24T13:42:04;24.2;88.0
45383;DHT22;42455;51.660;5.824;2023-07-24T13:47:10;24.3;88.0
45383;DHT22;42455;51.660;5.824;2023-07-24T13:52:16;24.3;87.5
45383;DHT22;42455;51.660;5.824;2023-07-24T13:57:22;24.4;87.0
45383;DHT22;42455;51.660;5.824;2023-07-24T14:02:28;24.3;86.5
45383;DHT22;42455;51.660;5.824;2023-07-24T14:07:35;24.2;86.5
45383;DHT22;42455;51.660;5.824;2023-07-24T14:12:41;24.0;86.0
45383;DHT22;42455;51.660;5.824;2023-07-24T14:17:47;23.8;86.0
45383;DHT22;42455;51.660;5.824;2023-07-24T14:22:53;23.6;86.5
45383;DHT22;42455;51.660;5.824;2023-07-24T14:27:59;23.4;86.5
45383;DHT22;42455;51.660;5.824;2023-07-24T14:33:06;23.0;86.5
45383;DHT22;42455;51.660;5.824;2023-07-24T14:38:12;22.7;87.0
45383;DHT22;42455;51.660;5.824;2023-07-24T14:43:17;22.3;87.5
45383;DHT22;42455;51.660;5.824;2023-07-24T14:48:23;21.9;88.0
45383;DHT22;42455;51.660;5.824;2023-07-24T14:53:29;21.5;89.0
45383;DHT22;42455;51.660;5.824;2023-07-24T14:58:36;21.3;90.0
45383;DHT22;42455;51.660;5.824;2023-07-24T15:03:42;21.3;91.5
45383;DHT22;42455;51.660;5.824;2023-07-24T15:08:48;21.5;92.5
45383;DHT22;42455;51.660;5.824;2023-07-24T15:13:53;21.7;93.0
45383;DHT22;42455;51.660;5.824;2023-07-24T15:18:59;22.0;93.0
45383;DHT22;42455;51.660;5.824;2023-07-24T15:24:06;22.1;92.5
45383;DHT22;42455;51.660;5.824;2023-07-24T15:29:12;22.2;93.0
45383;DHT22;42455;51.660;5.824;2023-07-24T15:34:18;22.4;93.5
45383;DHT22;42455;51.660;5.824;2023-07-24T15:39:24;22.7;93.5
45383;DHT22;42455;51.660;5.824;2023-07-24T15:44:31;22.8;92.5
45383;DHT22;42455;51.660;5.824;2023-07-24T15:49:37;22.8;92.0
45383;DHT22;42455;51.660;5.824;2023-07-24T15:54:43;22.8;91.5
45383;DHT22;42455;51.660;5.824;2023-07-24T15:59:49;22.6;91.5
45383;DHT22;42455;51.660;5.824;2023-07-24T16:04:55;22.5;91.0
45383;DHT22;42455;51.660;5.824;2023-07-24T16:10:02;22.1;91.0
45383;DHT22;42455;51.660;5.824;2023-07-24T16:15:09;21.8;92.0
45383;DHT22;42455;51.660;5.824;2023-07-24T16:20:14;21.6;92.5
45383;DHT22;42455;51.660;5.824;2023-07-24T16:25:20;21.6;93.5
45383;DHT22;42455;51.660;5.824;2023-07-24T16:30:26;21.5;93.5
45383;DHT22;42455;51.660;5.824;2023-07-24T16:35:33;21.5;94.0
45383;DHT22;42455;51.660;5.824;2023-07-24T16:40:39;21.5;94.0
45383;DHT22;42455;51.660;5.824;2023-07-24T16:45:45;21.4;94.5
45383;DHT22;42455;51.660;5.824;2023-07-24T16:50:51;21.4;94.5
45383;DHT22;42455;51.660;5.824;2023-07-24T16:55:57;21.4;94.5
45383;DHT22;42455;51.660;5.824;2023-07-24T17:01:04;21.5;95.0
45383;DHT22;42455;51.660;5.824;2023-07-24T17:06:10;21.6;95.5
45383;DHT22;42455;51.660;5.824;2023-07-24T17:11:16;21.7;96.0
45383;DHT22;42455;51.660;5.824;2023-07-24T17:16:22;21.7;95.5
45383;DHT22;42455;51.660;5.824;2023-07-24T17:21:29;21.8;96.0
45383;DHT22;42455;51.660;5.824;2023-07-24T17:26:35;21.9;96.0
45383;DHT22;42455;51.660;5.824;2023-07-24T17:31:41;21.9;95.0
45383;DHT22;42455;51.660;5.824;2023-07-24T17:36:47;21.9;94.0
45383;DHT22;42455;51.660;5.824;2023-07-24T17:41:53;21.7;93.5
45383;DHT22;42455;51.660;5.824;2023-07-24T17:47:00;21.6;93.0
45383;DHT22;42455;51.660;5.824;2023-07-24T17:52:06;21.5;92.5
45383;DHT22;42455;51.660;5.824;2023-07-24T17:57:12;21.3;92.5
45383;DHT22;42455;51.660;5.824;2023-07-24T18:02:18;21.1;92.5
45383;DHT22;42455;51.660;5.824;2023-07-24T18:07:24;20.9;92.5
45383;DHT22;42455;51.660;5.824;2023-07-24T18:12:31;20.8;92.5
45383;DHT22;42455;51.660;5.824;2023-07-24T18:22:43;20.4;92.5
45383;DHT22;42455;51.660;5.824;2023-07-24T18:27:49;20.3;92.5
45383;DHT22;42455;51.660;5.824;2023-07-24T18:32:56;20.2;92.5
45383;DHT22;42455;51.660;5.824;2023-07-24T18:38:02;20.0;92.5
45383;DHT22;42455;51.660;5.824;2023-07-24T18:43:08;19.8;92.5
45383;DHT22;42455;51.660;5.824;2023-07-24T18:48:14;19.6;92.5
45383;DHT22;42455;51.660;5.824;2023-07-24T18:53:21;19.5;92.5
45383;DHT22;42455;51.660;5.824;2023-07-24T18:58:26;19.4;92.5
45383;DHT22;42455;51.660;5.824;2023-07-24T19:03:33;19.3;92.5
45383;DHT22;42455;51.660;5.824;2023-07-24T19:08:39;19.2;92.5
45383;DHT22;42455;51.660;5.824;2023-07-24T19:13:45;19.1;92.5
45383;DHT22;42455;51.660;5.824;2023-07-24T19:18:51;19.0;93.0
45383;DHT22;42455;51.660;5.824;2023-07-24T19:23:57;18.9;93.0
45383;DHT22;42455;51.660;5.824;2023-07-24T19:29:04;18.8;93.0
45383;DHT22;42455;51.660;5.824;2023-07-24T19:34:10;18.7;93.0
45383;DHT22;42455;51.660;5.824;2023-07-24T19:39:16;18.6;93.0
45383;DHT22;42455;51.660;5.824;2023-07-24T19:44:22;18.6;93.0
45383;DHT22;42455;51.660;5.824;2023-07-24T19:49:29;18.5;93.0
45383;DHT22;42455;51.660;5.824;2023-07-24T19:54:35;18.5;93.5
45383;DHT22;42455;51.660;5.824;2023-07-24T19:59:41;18.4;93.5
45383;DHT22;42455;51.660;5.824;2023-07-24T20:04:47;18.4;94.0
45383;DHT22;42455;51.660;5.824;2023-07-24T20:09:53;18.4;94.0
45383;DHT22;42455;51.660;5.824;2023-07-24T20:15:00;18.4;94.0
45383;DHT22;42455;51.660;5.824;2023-07-24T20:20:06;18.4;94.0
45383;DHT22;42455;51.660;5.824;2023-07-24T20:25:12;18.4;94.0
45383;DHT22;42455;51.660;5.824;2023-07-24T20:30:18;18.4;94.0
45383;DHT22;42455;51.660;5.824;2023-07-24T20:35:24;18.3;94.0
45383;DHT22;42455;51.660;5.824;2023-07-24T20:40:31;18.3;94.0
45383;DHT22;42455;51.660;5.824;2023-07-24T20:45:36;18.3;94.5
45383;DHT22;42455;51.660;5.824;2023-07-24T20:50:42;18.4;94.5
45383;DHT22;42455;51.660;5.824;2023-07-24T20:55:48;18.4;94.5
45383;DHT22;42455;51.660;5.824;2023-07-24T21:00:55;18.4;94.5
45383;DHT22;42455;51.660;5.824;2023-07-24T21:06:01;18.4;94.5
45383;DHT22;42455;51.660;5.824;2023-07-24T21:11:07;18.4;94.5
45383;DHT22;42455;51.660;5.824;2023-07-24T21:16:13;18.4;94.5
45383;DHT22;42455;51.660;5.824;2023-07-24T21:21:19;18.3;94.5
45383;DHT22;42455;51.660;5.824;2023-07-24T21:26:25;18.3;94.5
45383;DHT22;42455;51.660;5.824;2023-07-24T21:31:32;18.2;94.5
45383;DHT22;42455;51.660;5.824;2023-07-24T21:36:38;18.2;94.5
45383;DHT22;42455;51.660;5.824;2023-07-24T21:41:44;18.2;94.5
45383;DHT22;42455;51.660;5.824;2023-07-24T21:46:50;18.2;94.5
45383;DHT22;42455;51.660;5.824;2023-07-24T21:51:57;18.2;94.5
45383;DHT22;42455;51.660;5.824;2023-07-24T21:57:03;18.2;94.5
45383;DHT22;42455;51.660;5.824;2023-07-24T22:02:09;18.2;94.5
45383;DHT22;42455;51.660;5.824;2023-07-24T22:07:15;18.1;94.5
45383;DHT22;42455;51.660;5.824;2023-07-24T22:12:21;18.1;94.5
45383;DHT22;42455;51.660;5.824;2023-07-24T22:17:28;18.1;94.5
45383;DHT22;42455;51.660;5.824;2023-07-24T22:22:34;18.0;94.5
45383;DHT22;42455;51.660;5.824;2023-07-24T22:27:40;17.9;94.5
45383;DHT22;42455;51.660;5.824;2023-07-24T22:32:46;17.9;94.5
45383;DHT22;42455;51.660;5.824;2023-07-24T22:37:52;17.8;94.5
45383;DHT22;42455;51.660;5.824;2023-07-24T22:42:59;17.8;94.5
45383;DHT22;42455;51.660;5.824;2023-07-24T22:48:05;17.7;94.0
45383;DHT22;42455;51.660;5.824;2023-07-24T22:53:11;17.6;94.5
45383;DHT22;42455;51.660;5.824;2023-07-24T22:58:17;17.5;94.0
45383;DHT22;42455;51.660;5.824;2023-07-24T23:03:24;17.4;94.0
45383;DHT22;42455;51.660;5.824;2023-07-24T23:08:30;17.3;94.0
45383;DHT22;42455;51.660;5.824;2023-07-24T23:13:36;17.2;94.0
45383;DHT22;42455;51.660;5.824;2023-07-24T23:18:42;17.1;94.0
45383;DHT22;42455;51.660;5.824;2023-07-24T23:23:48;17.0;94.0
45383;DHT22;42455;51.660;5.824;2023-07-24T23:28:54;16.9;94.0
45383;DHT22;42455;51.660;5.824;2023-07-24T23:34:01;16.8;94.0
45383;DHT22;42455;51.660;5.824;2023-07-24T23:39:07;16.7;94.0
45383;DHT22;42455;51.660;5.824;2023-07-24T23:44:13;16.6;94.0
45383;DHT22;42455;51.660;5.824;2023-07-24T23:49:19;16.5;94.0
45383;DHT22;42455;51.660;5.824;2023-07-24T23:54:26;16.4;94.0
